Terminal Aerodrome Forecast
Issued by NWS

Home | Current Version | Previous Version | Text Only | Print | Product List | Glossary On
Versions: 1 2 3 4 5 6 7 8 9 10 11 12 13 14 15 16 17 18 19 20 21 22 23 24
000
FTUS43 KICT 281131
TAFCNU
TAF
KCNU 281131Z 2812/2912 16005KT P6SM VCTS SCT035CB OVC080
      TEMPO 2812/2814 5SM TSRA OVC035CB
     FM281500 16010KT P6SM BKN120
     FM281800 18012KT P6SM VCTS SCT035CB BKN120
     FM282300 16010KT P6SM SCT030 BKN100
     FM291000 15007KT P6SM VCTS OVC080CB=

USA.gov is the U.S. government's official web portal to all federal, state and local government web resources and services.